Main page
METAR-TAF:

METAR-TAF

Airports :

Évreux-Fauville Air Base

Évreux, France

latitude: 49-01N, longitude: 001-13E, elevation: 141 m

Current weather observation

The report was made 28 minutes ago, at 23:30 UTC
Wind 9 kt from the West
Temperature 14°C
Humidity 82%
Pressure 1023 hPa
Visibility 10 km or more
Few clouds at a height of 1700 ft
Scattered clouds at a height of 3100 ft
Broken clouds at a height of 3700 ft

METAR: LFOE 252330Z AUTO 26009KT 9999 FEW017 SCT031 BKN037 14/11 Q1023

Time: 01:58 (23:58 UTC)

Forecast

The report was made 9 hours and 58 minutes ago, at 14:00 UTC
Forecast valid from 25 at 15 UTC to 26 at 15 UTC
Wind 10 kt from the West with gusts up to 20 kt
Visibility 10 km or more
Broken clouds at a height of 3000 ft
Temporary
from 26 at 00 UTC to 26 at 03 UTC
Scattered clouds at a height of 1000 ft
Broken clouds at a height of 1400 ft

TAF: LFOE 251400Z 2515/2615 26010G20KT 9999 BKN030 TEMPO 2600/2603 SCT010 BKN014

Weather observations and forecasts of more than 4000 airports (METAR and TAF reports).

The available stations are represented by yellow and red dots on the map.

Hover mouse over dot to see the name of the station.

Then click to see weather observations and forecasts.

To change the map : click on the green buttons with a black cross to zoom in, on the green button with a dash to zoom out, or on the green arrows for adjacent maps.


METAR-TAF: